sensor_id;sensor_type;location;lat;lon;timestamp;pressure;altitude;pressure_sealevel;temperature;humidity
73422;BME280;61637;47.760;-122.022;2023-05-21T00:00:00;101930.339;;;22.7;29.9
73422;BME280;61637;47.760;-122.022;2023-05-21T00:02:00;101930.339;;;22.7;29.5
73422;BME280;61637;47.760;-122.022;2023-05-21T00:04:00;101930.339;;;22.7;29.0
73422;BME280;61637;47.760;-122.022;2023-05-21T00:06:01;101930.339;;;22.8;32.3
73422;BME280;61637;47.760;-122.022;2023-05-21T00:08:01;101930.339;;;22.9;31.0
73422;BME280;61637;47.760;-122.022;2023-05-21T00:10:00;101930.339;;;22.9;30.2
73422;BME280;61637;47.760;-122.022;2023-05-21T00:12:00;101930.339;;;22.9;30.6
73422;BME280;61637;47.760;-122.022;2023-05-21T00:14:00;101930.339;;;22.9;30.8
73422;BME280;61637;47.760;-122.022;2023-05-21T00:16:00;101930.339;;;22.8;29.7
73422;BME280;61637;47.760;-122.022;2023-05-21T00:18:01;101930.339;;;22.8;30.0
73422;BME280;61637;47.760;-122.022;2023-05-21T00:20:01;101930.339;;;22.7;28.6
73422;BME280;61637;47.760;-122.022;2023-05-21T00:22:00;101930.339;;;22.7;29.6
73422;BME280;61637;47.760;-122.022;2023-05-21T00:24:00;101930.339;;;22.6;29.1
73422;BME280;61637;47.760;-122.022;2023-05-21T00:26:00;101930.339;;;22.5;29.4
73422;BME280;61637;47.760;-122.022;2023-05-21T00:28:00;101930.339;;;22.4;26.0
73422;BME280;61637;47.760;-122.022;2023-05-21T00:30:01;101930.339;;;22.3;25.1
73422;BME280;61637;47.760;-122.022;2023-05-21T00:32:01;101930.339;;;22.3;25.5
73422;BME280;61637;47.760;-122.022;2023-05-21T00:34:00;101930.339;;;22.2;26.2
73422;BME280;61637;47.760;-122.022;2023-05-21T00:36:02;101930.339;;;22.2;25.4
73422;BME280;61637;47.760;-122.022;2023-05-21T00:38:01;101930.339;;;22.1;26.3
73422;BME280;61637;47.760;-122.022;2023-05-21T00:40:00;101930.339;;;21.9;25.6
73422;BME280;61637;47.760;-122.022;2023-05-21T00:42:01;101930.339;;;21.9;25.5
73422;BME280;61637;47.760;-122.022;2023-05-21T00:44:01;101930.339;;;21.9;26.7
73422;BME280;61637;47.760;-122.022;2023-05-21T00:46:00;101930.339;;;21.8;26.6
73422;BME280;61637;47.760;-122.022;2023-05-21T00:48:00;101930.339;;;21.9;27.3
73422;BME280;61637;47.760;-122.022;2023-05-21T00:50:00;101930.339;;;21.8;26.4
73422;BME280;61637;47.760;-122.022;2023-05-21T00:52:00;101930.339;;;21.8;27.6
73422;BME280;61637;47.760;-122.022;2023-05-21T00:54:00;101930.339;;;21.8;29.2
73422;BME280;61637;47.760;-122.022;2023-05-21T00:56:01;101930.339;;;21.8;28.0
73422;BME280;61637;47.760;-122.022;2023-05-21T00:58:00;101930.339;;;21.9;27.9
73422;BME280;61637;47.760;-122.022;2023-05-21T01:00:00;101930.339;;;21.9;29.3
73422;BME280;61637;47.760;-122.022;2023-05-21T01:02:00;101930.339;;;22.0;27.4
73422;BME280;61637;47.760;-122.022;2023-05-21T01:04:00;101930.339;;;21.9;26.7
73422;BME280;61637;47.760;-122.022;2023-05-21T01:06:00;101930.339;;;21.9;25.9
73422;BME280;61637;47.760;-122.022;2023-05-21T01:08:01;101930.339;;;21.8;29.4
73422;BME280;61637;47.760;-122.022;2023-05-21T01:10:01;101930.339;;;21.9;28.6
73422;BME280;61637;47.760;-122.022;2023-05-21T01:12:00;101930.339;;;21.8;27.0
73422;BME280;61637;47.760;-122.022;2023-05-21T01:14:01;101930.339;;;21.8;29.1
73422;BME280;61637;47.760;-122.022;2023-05-21T01:16:00;101930.339;;;21.9;30.1
73422;BME280;61637;47.760;-122.022;2023-05-21T01:18:00;101930.339;;;22.1;29.0
73422;BME280;61637;47.760;-122.022;2023-05-21T01:20:01;101930.339;;;22.2;28.6
73422;BME280;61637;47.760;-122.022;2023-05-21T01:22:02;101930.339;;;22.3;28.1
73422;BME280;61637;47.760;-122.022;2023-05-21T01:24:00;101930.339;;;22.4;27.5
73422;BME280;61637;47.760;-122.022;2023-05-21T01:26:00;101930.339;;;22.5;27.0
73422;BME280;61637;47.760;-122.022;2023-05-21T01:28:00;101930.339;;;22.5;25.2
73422;BME280;61637;47.760;-122.022;2023-05-21T01:30:01;101930.339;;;22.6;26.5
73422;BME280;61637;47.760;-122.022;2023-05-21T01:32:03;101930.339;;;22.7;26.3
73422;BME280;61637;47.760;-122.022;2023-05-21T01:34:00;101930.339;;;22.7;25.1
73422;BME280;61637;47.760;-122.022;2023-05-21T01:36:03;101930.339;;;22.7;25.4
73422;BME280;61637;47.760;-122.022;2023-05-21T01:38:03;101930.339;;;22.7;26.7
73422;BME280;61637;47.760;-122.022;2023-05-21T01:40:02;101930.339;;;22.6;26.3
73422;BME280;61637;47.760;-122.022;2023-05-21T01:42:01;101930.339;;;22.4;25.2
73422;BME280;61637;47.760;-122.022;2023-05-21T01:44:01;101930.339;;;22.2;25.0
73422;BME280;61637;47.760;-122.022;2023-05-21T01:46:00;101930.339;;;22.0;24.7
73422;BME280;61637;47.760;-122.022;2023-05-21T01:48:00;101930.339;;;21.7;25.8
73422;BME280;61637;47.760;-122.022;2023-05-21T01:50:00;101930.339;;;21.6;25.3
73422;BME280;61637;47.760;-122.022;2023-05-21T01:52:00;101930.339;;;21.4;24.3
73422;BME280;61637;47.760;-122.022;2023-05-21T01:54:00;101930.339;;;21.2;26.0
73422;BME280;61637;47.760;-122.022;2023-05-21T01:56:06;101930.339;;;21.1;25.7
73422;BME280;61637;47.760;-122.022;2023-05-21T01:58:00;101930.339;;;20.9;25.7
73422;BME280;61637;47.760;-122.022;2023-05-21T02:00:00;101930.339;;;20.8;26.8
73422;BME280;61637;47.760;-122.022;2023-05-21T02:02:00;101930.339;;;20.7;27.2
73422;BME280;61637;47.760;-122.022;2023-05-21T02:04:00;101930.339;;;20.7;27.0
73422;BME280;61637;47.760;-122.022;2023-05-21T02:06:00;101930.339;;;20.6;27.5
73422;BME280;61637;47.760;-122.022;2023-05-21T02:08:00;101930.339;;;20.5;27.4
73422;BME280;61637;47.760;-122.022;2023-05-21T02:10:00;101930.339;;;20.5;27.0
73422;BME280;61637;47.760;-122.022;2023-05-21T02:12:01;101930.339;;;20.4;27.9
73422;BME280;61637;47.760;-122.022;2023-05-21T02:14:00;101930.339;;;20.4;27.8
73422;BME280;61637;47.760;-122.022;2023-05-21T02:16:00;101930.339;;;20.4;28.0
73422;BME280;61637;47.760;-122.022;2023-05-21T02:18:01;101930.339;;;20.4;27.2
73422;BME280;61637;47.760;-122.022;2023-05-21T02:20:00;101930.339;;;20.4;28.4
73422;BME280;61637;47.760;-122.022;2023-05-21T02:22:00;101930.339;;;20.3;29.2
73422;BME280;61637;47.760;-122.022;2023-05-21T02:24:00;101930.339;;;20.3;28.8
73422;BME280;61637;47.760;-122.022;2023-05-21T02:26:00;101930.339;;;20.3;31.1
73422;BME280;61637;47.760;-122.022;2023-05-21T02:28:00;101930.339;;;20.4;32.1
73422;BME280;61637;47.760;-122.022;2023-05-21T02:30:01;101930.339;;;20.4;32.0
73422;BME280;61637;47.760;-122.022;2023-05-21T02:32:00;101930.339;;;20.4;31.4
73422;BME280;61637;47.760;-122.022;2023-05-21T02:34:00;101930.339;;;20.3;30.9
73422;BME280;61637;47.760;-122.022;2023-05-21T02:36:00;101930.339;;;20.3;32.0
73422;BME280;61637;47.760;-122.022;2023-05-21T02:38:00;101930.339;;;20.3;32.2
73422;BME280;61637;47.760;-122.022;2023-05-21T02:40:01;101930.339;;;20.2;33.0
73422;BME280;61637;47.760;-122.022;2023-05-21T02:42:00;101930.339;;;20.2;32.1
73422;BME280;61637;47.760;-122.022;2023-05-21T02:44:01;101930.339;;;20.1;33.4
73422;BME280;61637;47.760;-122.022;2023-05-21T02:46:00;101930.339;;;20.1;33.5
73422;BME280;61637;47.760;-122.022;2023-05-21T02:48:00;101930.339;;;20.0;33.3
73422;BME280;61637;47.760;-122.022;2023-05-21T02:50:00;101930.339;;;19.9;34.0
73422;BME280;61637;47.760;-122.022;2023-05-21T02:52:00;101930.339;;;19.9;33.2
73422;BME280;61637;47.760;-122.022;2023-05-21T02:54:00;101930.339;;;19.9;33.0
73422;BME280;61637;47.760;-122.022;2023-05-21T02:56:00;101930.339;;;19.8;32.0
73422;BME280;61637;47.760;-122.022;2023-05-21T02:58:00;101930.339;;;19.8;31.6
73422;BME280;61637;47.760;-122.022;2023-05-21T03:00:00;101930.339;;;19.7;31.5
73422;BME280;61637;47.760;-122.022;2023-05-21T03:02:00;101930.339;;;19.6;32.7
73422;BME280;61637;47.760;-122.022;2023-05-21T03:04:00;101930.339;;;19.6;33.0
73422;BME280;61637;47.760;-122.022;2023-05-21T03:06:00;101930.339;;;19.5;34.7
73422;BME280;61637;47.760;-122.022;2023-05-21T03:08:00;101930.339;;;19.4;33.6
73422;BME280;61637;47.760;-122.022;2023-05-21T03:10:00;101930.339;;;19.4;34.3
73422;BME280;61637;47.760;-122.022;2023-05-21T03:12:00;101930.339;;;19.3;34.5
73422;BME280;61637;47.760;-122.022;2023-05-21T03:14:00;101930.339;;;19.2;33.8
73422;BME280;61637;47.760;-122.022;2023-05-21T03:16:00;101930.339;;;19.2;33.4
73422;BME280;61637;47.760;-122.022;2023-05-21T03:18:00;101930.339;;;19.1;31.6
73422;BME280;61637;47.760;-122.022;2023-05-21T03:20:01;101930.339;;;18.9;32.0
73422;BME280;61637;47.760;-122.022;2023-05-21T03:22:00;101930.339;;;18.9;31.8
73422;BME280;61637;47.760;-122.022;2023-05-21T03:24:00;101930.339;;;18.8;31.9
73422;BME280;61637;47.760;-122.022;2023-05-21T03:26:00;101930.339;;;18.7;31.4
73422;BME280;61637;47.760;-122.022;2023-05-21T03:28:00;101930.339;;;18.6;30.8
73422;BME280;61637;47.760;-122.022;2023-05-21T03:30:00;101930.339;;;18.5;30.8
73422;BME280;61637;47.760;-122.022;2023-05-21T03:32:01;101930.339;;;18.4;30.8
73422;BME280;61637;47.760;-122.022;2023-05-21T03:34:00;101930.339;;;18.2;29.9
73422;BME280;61637;47.760;-122.022;2023-05-21T03:36:00;101930.339;;;18.2;30.4
73422;BME280;61637;47.760;-122.022;2023-05-21T03:38:00;101930.339;;;18.1;31.7
73422;BME280;61637;47.760;-122.022;2023-05-21T03:40:00;101930.339;;;17.9;32.5
73422;BME280;61637;47.760;-122.022;2023-05-21T03:42:00;101930.339;;;17.9;32.0
73422;BME280;61637;47.760;-122.022;2023-05-21T03:44:01;101930.339;;;17.8;30.8
73422;BME280;61637;47.760;-122.022;2023-05-21T03:46:00;101930.339;;;17.7;31.2
73422;BME280;61637;47.760;-122.022;2023-05-21T03:48:00;101930.339;;;17.7;31.6
73422;BME280;61637;47.760;-122.022;2023-05-21T03:50:00;101930.339;;;17.6;31.7
73422;BME280;61637;47.760;-122.022;2023-05-21T03:52:00;101930.339;;;17.5;32.3
73422;BME280;61637;47.760;-122.022;2023-05-21T03:54:00;101930.339;;;17.4;32.4
73422;BME280;61637;47.760;-122.022;2023-05-21T03:56:00;101930.339;;;17.3;33.0
73422;BME280;61637;47.760;-122.022;2023-05-21T03:58:00;101930.339;;;17.2;32.9
73422;BME280;61637;47.760;-122.022;2023-05-21T04:00:00;101930.339;;;17.1;33.0
73422;BME280;61637;47.760;-122.022;2023-05-21T04:02:00;101930.339;;;17.1;33.1
73422;BME280;61637;47.760;-122.022;2023-05-21T04:04:00;101930.339;;;17.0;33.6
73422;BME280;61637;47.760;-122.022;2023-05-21T04:06:00;101930.339;;;16.9;34.5
73422;BME280;61637;47.760;-122.022;2023-05-21T04:08:00;101930.339;;;16.8;35.3
73422;BME280;61637;47.760;-122.022;2023-05-21T04:10:00;101930.339;;;16.8;34.4
73422;BME280;61637;47.760;-122.022;2023-05-21T04:12:00;101930.339;;;16.7;35.4
73422;BME280;61637;47.760;-122.022;2023-05-21T04:14:00;101930.339;;;16.7;35.2
73422;BME280;61637;47.760;-122.022;2023-05-21T04:16:00;101930.339;;;16.6;35.8
73422;BME280;61637;47.760;-122.022;2023-05-21T04:18:00;101930.339;;;16.5;35.3
73422;BME280;61637;47.760;-122.022;2023-05-21T04:20:00;101930.339;;;16.4;34.8
73422;BME280;61637;47.760;-122.022;2023-05-21T04:22:00;101930.339;;;16.4;35.1
73422;BME280;61637;47.760;-122.022;2023-05-21T04:24:00;101930.339;;;16.3;34.1
73422;BME280;61637;47.760;-122.022;2023-05-21T04:26:00;101930.339;;;16.3;34.4
73422;BME280;61637;47.760;-122.022;2023-05-21T04:28:00;101930.339;;;16.2;34.8
73422;BME280;61637;47.760;-122.022;2023-05-21T04:30:00;101930.339;;;16.2;34.9
73422;BME280;61637;47.760;-122.022;2023-05-21T04:32:00;101930.339;;;16.2;36.6
73422;BME280;61637;47.760;-122.022;2023-05-21T04:34:00;101930.339;;;16.1;36.2
73422;BME280;61637;47.760;-122.022;2023-05-21T04:36:00;101930.339;;;16.1;35.6
73422;BME280;61637;47.760;-122.022;2023-05-21T04:38:00;101930.339;;;16.0;35.8
73422;BME280;61637;47.760;-122.022;2023-05-21T04:40:00;101930.339;;;16.0;36.4
73422;BME280;61637;47.760;-122.022;2023-05-21T04:42:00;101930.339;;;15.9;36.1
73422;BME280;61637;47.760;-122.022;2023-05-21T04:44:00;101930.339;;;15.9;36.6
73422;BME280;61637;47.760;-122.022;2023-05-21T04:46:00;101930.339;;;15.9;36.6
73422;BME280;61637;47.760;-122.022;2023-05-21T04:48:00;101930.339;;;15.8;36.0
73422;BME280;61637;47.760;-122.022;2023-05-21T04:50:00;101930.339;;;15.8;36.7
73422;BME280;61637;47.760;-122.022;2023-05-21T04:52:00;101930.339;;;15.8;36.9
73422;BME280;61637;47.760;-122.022;2023-05-21T04:54:00;101930.339;;;15.7;37.1
73422;BME280;61637;47.760;-122.022;2023-05-21T04:56:00;101930.339;;;15.7;37.2
73422;BME280;61637;47.760;-122.022;2023-05-21T04:58:00;101930.339;;;15.6;37.5
73422;BME280;61637;47.760;-122.022;2023-05-21T05:00:00;101930.339;;;15.5;37.9
73422;BME280;61637;47.760;-122.022;2023-05-21T05:02:00;101930.339;;;15.4;37.9
73422;BME280;61637;47.760;-122.022;2023-05-21T05:04:00;101930.339;;;15.3;37.7
73422;BME280;61637;47.760;-122.022;2023-05-21T05:06:01;101930.339;;;15.3;38.4
73422;BME280;61637;47.760;-122.022;2023-05-21T05:08:00;101930.339;;;15.2;38.2
73422;BME280;61637;47.760;-122.022;2023-05-21T05:10:00;101930.339;;;15.2;38.7
73422;BME280;61637;47.760;-122.022;2023-05-21T05:12:00;101930.339;;;15.2;38.7
73422;BME280;61637;47.760;-122.022;2023-05-21T05:14:00;101930.339;;;15.1;39.4
73422;BME280;61637;47.760;-122.022;2023-05-21T05:16:00;101930.339;;;15.1;39.0
73422;BME280;61637;47.760;-122.022;2023-05-21T05:18:00;101930.339;;;15.1;39.8
73422;BME280;61637;47.760;-122.022;2023-05-21T05:20:00;101930.339;;;15.1;40.2
73422;BME280;61637;47.760;-122.022;2023-05-21T05:22:00;101930.339;;;15.1;40.0
73422;BME280;61637;47.760;-122.022;2023-05-21T05:24:00;101930.339;;;15.1;40.8
73422;BME280;61637;47.760;-122.022;2023-05-21T05:26:00;101930.339;;;15.1;40.6
73422;BME280;61637;47.760;-122.022;2023-05-21T05:28:00;101930.339;;;15.1;40.3
73422;BME280;61637;47.760;-122.022;2023-05-21T05:30:00;101930.339;;;15.1;40.8
73422;BME280;61637;47.760;-122.022;2023-05-21T05:32:00;101930.339;;;15.1;41.7
73422;BME280;61637;47.760;-122.022;2023-05-21T05:34:00;101930.339;;;15.1;42.4
73422;BME280;61637;47.760;-122.022;2023-05-21T05:36:00;101930.339;;;15.1;42.2
73422;BME280;61637;47.760;-122.022;2023-05-21T05:38:00;101930.339;;;15.0;42.4
73422;BME280;61637;47.760;-122.022;2023-05-21T05:40:00;101930.339;;;15.0;41.4
73422;BME280;61637;47.760;-122.022;2023-05-21T05:42:00;101930.339;;;15.0;41.6
73422;BME280;61637;47.760;-122.022;2023-05-21T05:44:00;101930.339;;;15.0;40.9
73422;BME280;61637;47.760;-122.022;2023-05-21T05:46:00;101930.339;;;15.0;40.4
73422;BME280;61637;47.760;-122.022;2023-05-21T05:48:00;101930.339;;;15.0;40.3
73422;BME280;61637;47.760;-122.022;2023-05-21T05:50:00;101930.339;;;15.0;40.1
73422;BME280;61637;47.760;-122.022;2023-05-21T05:52:00;101930.339;;;14.9;40.9
73422;BME280;61637;47.760;-122.022;2023-05-21T05:54:00;101930.339;;;14.9;40.4
73422;BME280;61637;47.760;-122.022;2023-05-21T05:56:01;101930.339;;;14.9;40.3
73422;BME280;61637;47.760;-122.022;2023-05-21T05:58:00;101930.339;;;14.9;39.7
73422;BME280;61637;47.760;-122.022;2023-05-21T06:00:00;101930.339;;;14.9;40.0
73422;BME280;61637;47.760;-122.022;2023-05-21T06:02:00;101930.339;;;14.9;40.4
73422;BME280;61637;47.760;-122.022;2023-05-21T06:04:00;101930.339;;;14.8;40.3
73422;BME280;61637;47.760;-122.022;2023-05-21T06:06:00;101930.339;;;14.9;40.1
73422;BME280;61637;47.760;-122.022;2023-05-21T06:08:01;101930.339;;;14.8;40.2
73422;BME280;61637;47.760;-122.022;2023-05-21T06:10:00;101930.339;;;14.8;39.8
73422;BME280;61637;47.760;-122.022;2023-05-21T06:12:00;101930.339;;;14.8;41.1
73422;BME280;61637;47.760;-122.022;2023-05-21T06:14:00;101930.339;;;14.8;40.1
73422;BME280;61637;47.760;-122.022;2023-05-21T06:16:00;101930.339;;;14.8;41.1
73422;BME280;61637;47.760;-122.022;2023-05-21T06:18:00;101930.339;;;14.7;40.9
73422;BME280;61637;47.760;-122.022;2023-05-21T06:20:00;101930.339;;;14.8;40.9
73422;BME280;61637;47.760;-122.022;2023-05-21T06:22:00;101930.339;;;14.8;41.1
73422;BME280;61637;47.760;-122.022;2023-05-21T06:24:00;101930.339;;;14.7;40.8
73422;BME280;61637;47.760;-122.022;2023-05-21T06:26:00;101930.339;;;14.7;40.5
73422;BME280;61637;47.760;-122.022;2023-05-21T06:28:00;101930.339;;;14.8;41.6
73422;BME280;61637;47.760;-122.022;2023-05-21T06:30:00;101930.339;;;14.8;41.1
73422;BME280;61637;47.760;-122.022;2023-05-21T06:32:00;101930.339;;;14.8;42.7
73422;BME280;61637;47.760;-122.022;2023-05-21T06:34:00;101930.339;;;14.7;41.2
73422;BME280;61637;47.760;-122.022;2023-05-21T06:36:00;101930.339;;;14.7;41.8
73422;BME280;61637;47.760;-122.022;2023-05-21T06:38:00;101930.339;;;14.6;41.0
73422;BME280;61637;47.760;-122.022;2023-05-21T06:40:00;101930.339;;;14.6;40.8
73422;BME280;61637;47.760;-122.022;2023-05-21T06:42:00;101930.339;;;14.6;41.9
73422;BME280;61637;47.760;-122.022;2023-05-21T06:44:00;101930.339;;;14.5;41.7
73422;BME280;61637;47.760;-122.022;2023-05-21T06:46:00;101930.339;;;14.4;42.5
73422;BME280;61637;47.760;-122.022;2023-05-21T06:48:00;101930.339;;;14.3;44.7
73422;BME280;61637;47.760;-122.022;2023-05-21T06:50:00;101930.339;;;14.3;42.5
73422;BME280;61637;47.760;-122.022;2023-05-21T06:52:00;101930.339;;;14.2;43.5
73422;BME280;61637;47.760;-122.022;2023-05-21T06:54:00;101930.339;;;14.2;44.0
73422;BME280;61637;47.760;-122.022;2023-05-21T06:56:00;101930.339;;;14.2;44.6
73422;BME280;61637;47.760;-122.022;2023-05-21T06:58:00;101930.339;;;14.1;42.8
73422;BME280;61637;47.760;-122.022;2023-05-21T07:00:00;101930.339;;;14.0;42.2
73422;BME280;61637;47.760;-122.022;2023-05-21T07:02:00;101930.339;;;13.9;42.4
73422;BME280;61637;47.760;-122.022;2023-05-21T07:04:00;101930.339;;;13.9;41.5
73422;BME280;61637;47.760;-122.022;2023-05-21T07:06:00;101930.339;;;13.9;40.9
73422;BME280;61637;47.760;-122.022;2023-05-21T07:08:00;101930.339;;;13.9;41.2
73422;BME280;61637;47.760;-122.022;2023-05-21T07:10:00;101930.339;;;13.9;41.4
73422;BME280;61637;47.760;-122.022;2023-05-21T07:12:00;101930.339;;;13.9;40.1
73422;BME280;61637;47.760;-122.022;2023-05-21T07:14:00;102268.97799999999;;;13.8;40.9
73422;BME280;61637;47.760;-122.022;2023-05-21T07:16:00;102268.97799999999;;;13.8;41.8
73422;BME280;61637;47.760;-122.022;2023-05-21T07:18:00;101930.339;;;13.8;41.4
73422;BME280;61637;47.760;-122.022;2023-05-21T07:20:00;101930.339;;;13.8;42.3
73422;BME280;61637;47.760;-122.022;2023-05-21T07:22:00;101930.339;;;13.7;41.5
73422;BME280;61637;47.760;-122.022;2023-05-21T07:24:00;101930.339;;;13.7;41.4
73422;BME280;61637;47.760;-122.022;2023-05-21T07:26:00;101930.339;;;13.7;41.5
73422;BME280;61637;47.760;-122.022;2023-05-21T07:28:00;101930.339;;;13.6;42.3
73422;BME280;61637;47.760;-122.022;2023-05-21T07:30:00;101930.339;;;13.6;41.8
73422;BME280;61637;47.760;-122.022;2023-05-21T07:32:01;101930.339;;;13.6;41.9
73422;BME280;61637;47.760;-122.022;2023-05-21T07:34:00;101930.339;;;13.5;42.0
73422;BME280;61637;47.760;-122.022;2023-05-21T07:36:00;101930.339;;;13.4;43.3
73422;BME280;61637;47.760;-122.022;2023-05-21T07:38:00;101930.339;;;13.4;42.9
73422;BME280;61637;47.760;-122.022;2023-05-21T07:40:00;101930.339;;;13.3;43.1
73422;BME280;61637;47.760;-122.022;2023-05-21T07:42:00;101930.339;;;13.3;44.4
73422;BME280;61637;47.760;-122.022;2023-05-21T07:44:00;101930.339;;;13.3;46.7
73422;BME280;61637;47.760;-122.022;2023-05-21T07:46:00;101930.339;;;13.2;49.6
73422;BME280;61637;47.760;-122.022;2023-05-21T07:48:00;101930.339;;;13.2;49.6
73422;BME280;61637;47.760;-122.022;2023-05-21T07:50:00;101930.339;;;13.2;48.4
73422;BME280;61637;47.760;-122.022;2023-05-21T07:52:00;101930.339;;;13.2;46.8
73422;BME280;61637;47.760;-122.022;2023-05-21T07:54:00;101930.339;;;13.1;47.5
73422;BME280;61637;47.760;-122.022;2023-05-21T07:56:00;101930.339;;;13.1;48.3
73422;BME280;61637;47.760;-122.022;2023-05-21T07:58:00;101930.339;;;13.0;47.2
73422;BME280;61637;47.760;-122.022;2023-05-21T08:00:00;101930.339;;;12.9;49.1
73422;BME280;61637;47.760;-122.022;2023-05-21T08:02:00;101930.339;;;12.9;46.3
73422;BME280;61637;47.760;-122.022;2023-05-21T08:04:00;101930.339;;;12.9;45.7
73422;BME280;61637;47.760;-122.022;2023-05-21T08:06:00;102268.97799999999;;;12.8;45.5
73422;BME280;61637;47.760;-122.022;2023-05-21T08:08:00;102268.97799999999;;;12.8;45.1
73422;BME280;61637;47.760;-122.022;2023-05-21T08:10:00;102268.97799999999;;;12.8;43.9
73422;BME280;61637;47.760;-122.022;2023-05-21T08:12:00;102268.97799999999;;;12.7;45.1
73422;BME280;61637;47.760;-122.022;2023-05-21T08:14:00;102268.97799999999;;;12.7;45.3
73422;BME280;61637;47.760;-122.022;2023-05-21T08:16:00;102268.97799999999;;;12.7;44.4
73422;BME280;61637;47.760;-122.022;2023-05-21T08:18:00;102268.97799999999;;;12.7;43.4
73422;BME280;61637;47.760;-122.022;2023-05-21T08:20:01;102268.97799999999;;;12.6;44.9
73422;BME280;61637;47.760;-122.022;2023-05-21T08:22:00;102268.97799999999;;;12.6;43.6
73422;BME280;61637;47.760;-122.022;2023-05-21T08:24:00;102268.97799999999;;;12.5;44.3
73422;BME280;61637;47.760;-122.022;2023-05-21T08:26:00;102268.97799999999;;;12.5;45.9
73422;BME280;61637;47.760;-122.022;2023-05-21T08:28:00;102268.97799999999;;;12.4;46.5
73422;BME280;61637;47.760;-122.022;2023-05-21T08:30:00;102268.97799999999;;;12.4;48.8
73422;BME280;61637;47.760;-122.022;2023-05-21T08:32:00;102268.97799999999;;;12.3;46.8
73422;BME280;61637;47.760;-122.022;2023-05-21T08:34:00;102268.97799999999;;;12.3;45.9
73422;BME280;61637;47.760;-122.022;2023-05-21T08:36:00;102268.97799999999;;;12.3;49.4
73422;BME280;61637;47.760;-122.022;2023-05-21T08:38:00;102268.97799999999;;;12.2;52.2
73422;BME280;61637;47.760;-122.022;2023-05-21T08:40:00;102268.97799999999;;;12.2;52.5
73422;BME280;61637;47.760;-122.022;2023-05-21T08:42:03;102268.97799999999;;;12.1;47.8
73422;BME280;61637;47.760;-122.022;2023-05-21T08:44:01;102268.97799999999;;;12.1;46.8
73422;BME280;61637;47.760;-122.022;2023-05-21T08:46:00;102268.97799999999;;;12.1;47.0
73422;BME280;61637;47.760;-122.022;2023-05-21T08:48:00;102268.97799999999;;;12.0;46.4
73422;BME280;61637;47.760;-122.022;2023-05-21T08:50:01;102268.97799999999;;;12.0;46.7
73422;BME280;61637;47.760;-122.022;2023-05-21T08:52:00;102268.97799999999;;;12.0;46.5
73422;BME280;61637;47.760;-122.022;2023-05-21T08:54:00;102268.97799999999;;;12.0;46.3
73422;BME280;61637;47.760;-122.022;2023-05-21T08:56:00;102268.97799999999;;;12.0;47.7
73422;BME280;61637;47.760;-122.022;2023-05-21T08:58:00;102268.97799999999;;;11.9;47.3
73422;BME280;61637;47.760;-122.022;2023-05-21T09:00:00;102268.97799999999;;;12.0;47.4
73422;BME280;61637;47.760;-122.022;2023-05-21T09:02:00;102268.97799999999;;;12.0;49.3
73422;BME280;61637;47.760;-122.022;2023-05-21T09:04:00;102268.97799999999;;;12.1;48.5
73422;BME280;61637;47.760;-122.022;2023-05-21T09:06:00;102268.97799999999;;;12.1;49.4
73422;BME280;61637;47.760;-122.022;2023-05-21T09:08:03;102268.97799999999;;;12.0;46.7
73422;BME280;61637;47.760;-122.022;2023-05-21T09:10:01;102268.97799999999;;;12.1;47.9
73422;BME280;61637;47.760;-122.022;2023-05-21T09:12:00;102268.97799999999;;;12.1;48.1
73422;BME280;61637;47.760;-122.022;2023-05-21T09:14:00;102268.97799999999;;;12.1;46.4
73422;BME280;61637;47.760;-122.022;2023-05-21T09:16:00;102268.97799999999;;;12.1;47.0
73422;BME280;61637;47.760;-122.022;2023-05-21T09:18:00;102268.97799999999;;;12.1;46.4
73422;BME280;61637;47.760;-122.022;2023-05-21T09:20:09;102268.97799999999;;;12.1;46.1
73422;BME280;61637;47.760;-122.022;2023-05-21T09:22:01;102268.97799999999;;;12.1;46.4
73422;BME280;61637;47.760;-122.022;2023-05-21T09:24:00;102268.97799999999;;;12.1;46.3
73422;BME280;61637;47.760;-122.022;2023-05-21T09:26:00;102268.97799999999;;;12.1;46.3
73422;BME280;61637;47.760;-122.022;2023-05-21T09:28:00;102268.97799999999;;;12.0;47.4
73422;BME280;61637;47.760;-122.022;2023-05-21T09:30:01;102268.97799999999;;;12.0;46.3
73422;BME280;61637;47.760;-122.022;2023-05-21T09:32:04;102268.97799999999;;;11.9;45.9
73422;BME280;61637;47.760;-122.022;2023-05-21T09:34:00;102268.97799999999;;;11.9;46.5
73422;BME280;61637;47.760;-122.022;2023-05-21T09:36:00;102268.97799999999;;;11.9;45.6
73422;BME280;61637;47.760;-122.022;2023-05-21T09:38:00;102268.97799999999;;;11.9;45.6
73422;BME280;61637;47.760;-122.022;2023-05-21T09:40:00;102268.97799999999;;;11.9;45.6
73422;BME280;61637;47.760;-122.022;2023-05-21T09:42:00;102268.97799999999;;;11.9;46.2
73422;BME280;61637;47.760;-122.022;2023-05-21T09:44:01;102268.97799999999;;;11.9;46.6
73422;BME280;61637;47.760;-122.022;2023-05-21T09:46:00;102268.97799999999;;;11.9;46.8
73422;BME280;61637;47.760;-122.022;2023-05-21T09:48:00;102268.97799999999;;;11.9;46.4
73422;BME280;61637;47.760;-122.022;2023-05-21T09:50:00;102268.97799999999;;;11.9;46.7
73422;BME280;61637;47.760;-122.022;2023-05-21T09:52:00;102268.97799999999;;;11.9;47.4
73422;BME280;61637;47.760;-122.022;2023-05-21T09:54:00;102268.97799999999;;;11.8;47.5
73422;BME280;61637;47.760;-122.022;2023-05-21T09:56:00;102268.97799999999;;;11.8;47.5
73422;BME280;61637;47.760;-122.022;2023-05-21T09:58:00;102268.97799999999;;;11.8;47.5